Byers, Texas
Current Conditions -  °F | °C
As of 3:52 PM on Thursday 23 Oct 2014 (Local Time) from KSPS Reporting Station
Scattered Clouds Scattered Clouds  
Wind Chill: 81°   Ceiling: Unl
Heat Index: 81°   Visibility: 10mi
Dew Point: 59°   Wind: 7mph
Humidity: 47%   Direction: 210°SSW
Pressure: 30.03"   Gusts: NA
Location:  34.07°N, 98.19°W
Report Text: KSPS 232052Z 21006KT 10SM SCT048 27/15 A3003 RMK AO2 SLP158 T02720150 56024
Loading
Personal Weather Stations






























Interactive Weather Map
Tropical Storm Tracking
New forecast layout! Learn more

10-Day Weather Forecast

Advertisements
Track Severe Weather on mobile